createdAt,value
2023-05-17T00:00:28.988Z,2.03
2023-05-17T00:02:55.800Z,2.30
2023-05-17T00:05:22.737Z,2.10
2023-05-17T00:07:49.597Z,2.20
2023-05-17T00:10:16.445Z,2.30
2023-05-17T00:12:43.239Z,2.30
2023-05-17T00:15:10.662Z,2.00
2023-05-17T00:17:38.069Z,2.30
2023-05-17T00:20:06.167Z,1.80
2023-05-17T00:22:32.941Z,2.07
2023-05-17T00:24:59.784Z,1.87
2023-05-17T00:27:26.571Z,1.80
2023-05-17T00:29:53.369Z,1.80
2023-05-17T00:32:20.168Z,1.77
2023-05-17T00:34:46.975Z,2.00
2023-05-17T00:37:13.770Z,2.00
2023-05-17T00:39:43.148Z,2.20
2023-05-17T00:42:11.526Z,2.53
2023-05-17T00:44:38.392Z,1.90
2023-05-17T00:47:05.451Z,2.33
2023-05-17T00:49:32.632Z,2.20
2023-05-17T00:52:00.402Z,1.93
2023-05-17T00:54:27.634Z,2.00
2023-05-17T00:56:57.030Z,1.90
2023-05-17T00:59:24.570Z,1.90
2023-05-17T01:01:52.426Z,2.10
2023-05-17T01:04:19.333Z,2.10
2023-05-17T01:06:46.265Z,2.10
2023-05-17T01:09:13.688Z,2.17
2023-05-17T01:12:03.778Z,2.30
2023-05-17T01:15:17.907Z,2.30
2023-05-17T01:17:57.610Z,1.97
2023-05-17T01:20:45.395Z,1.83
2023-05-17T01:23:53.459Z,2.07
2023-05-17T01:26:37.135Z,2.00
2023-05-17T01:29:07.826Z,2.30
2023-05-17T01:31:39.187Z,2.07
2023-05-17T01:34:09.479Z,2.03
2023-05-17T01:36:37.193Z,2.20
2023-05-17T01:39:04.054Z,2.10
2023-05-17T01:41:40.848Z,2.10
2023-05-17T01:44:33.128Z,2.27
2023-05-17T01:47:16.253Z,2.13
2023-05-17T01:49:51.773Z,2.10
2023-05-17T01:52:27.163Z,2.67
2023-05-17T01:55:07.591Z,2.20
2023-05-17T01:57:37.874Z,2.20
2023-05-17T02:00:09.622Z,2.47
2023-05-17T02:02:37.026Z,2.00
2023-05-17T02:05:04.255Z,2.30
2023-05-17T02:07:31.229Z,2.10
2023-05-17T02:09:58.032Z,2.80
2023-05-17T02:12:25.383Z,2.73
2023-05-17T02:14:52.191Z,3.00
2023-05-17T02:17:19.110Z,2.17
2023-05-17T02:19:48.786Z,2.20
2023-05-17T02:22:15.912Z,2.10
2023-05-17T02:24:42.676Z,2.17
2023-05-17T02:27:09.437Z,2.00
2023-05-17T02:29:36.670Z,2.47
2023-05-17T02:32:03.754Z,2.07
2023-05-17T02:34:30.547Z,2.00
2023-05-17T02:36:57.308Z,2.37
2023-05-17T02:39:24.073Z,2.67
2023-05-17T02:41:50.924Z,2.53
2023-05-17T02:44:17.712Z,2.47
2023-05-17T02:46:44.505Z,2.30
2023-05-17T02:49:17.492Z,2.33
2023-05-17T02:51:44.277Z,2.23
2023-05-17T02:54:11.200Z,2.20
2023-05-17T02:56:37.975Z,2.30
2023-05-17T02:59:04.809Z,2.13
2023-05-17T03:01:31.581Z,2.00
2023-05-17T03:03:58.535Z,2.03
2023-05-17T03:06:25.619Z,2.30
2023-05-17T03:08:52.416Z,2.10
2023-05-17T03:11:19.178Z,2.30
2023-05-17T03:13:51.872Z,2.07
2023-05-17T03:16:19.148Z,1.90
2023-05-17T03:18:46.051Z,2.20
2023-05-17T03:21:12.945Z,2.03
2023-05-17T03:23:39.704Z,1.97
2023-05-17T03:26:06.844Z,2.10
2023-05-17T03:28:33.670Z,2.43
2023-05-17T03:31:00.638Z,2.00
2023-05-17T03:33:27.497Z,2.17
2023-05-17T03:35:54.298Z,2.20
2023-05-17T03:38:21.125Z,2.10
2023-05-17T03:40:47.991Z,2.10
2023-05-17T03:43:14.868Z,2.30
2023-05-17T03:45:41.669Z,1.90
2023-05-17T03:48:08.491Z,2.30
2023-05-17T03:50:35.475Z,2.17
2023-05-17T03:53:02.353Z,2.10
2023-05-17T03:55:29.315Z,2.10
2023-05-17T03:57:56.169Z,2.20
2023-05-17T04:00:23.845Z,2.10
2023-05-17T04:02:52.045Z,2.30
2023-05-17T04:05:19.920Z,2.00
2023-05-17T04:07:46.724Z,2.57
2023-05-17T04:10:13.598Z,2.03
2023-05-17T04:12:40.411Z,2.50
2023-05-17T04:15:08.142Z,2.30
2023-05-17T04:17:34.952Z,2.13
2023-05-17T04:20:02.604Z,1.90
2023-05-17T04:22:29.351Z,2.20
2023-05-17T04:24:56.094Z,2.17
2023-05-17T04:27:23.136Z,2.20
2023-05-17T04:29:49.910Z,2.70
2023-05-17T04:32:18.003Z,2.60
2023-05-17T04:34:44.810Z,2.40
2023-05-17T04:37:11.660Z,2.33
2023-05-17T04:39:38.496Z,3.00
2023-05-17T04:42:05.754Z,2.83
2023-05-17T04:44:32.558Z,2.57
2023-05-17T04:46:59.317Z,2.57
2023-05-17T04:49:26.547Z,2.27
2023-05-17T04:51:53.303Z,2.27
2023-05-17T04:54:20.154Z,2.13
2023-05-17T04:56:47.043Z,1.90
2023-05-17T04:59:16.552Z,1.70
2023-05-17T05:01:43.323Z,1.93
2023-05-17T05:04:10.251Z,1.93
2023-05-17T05:06:37.123Z,2.50
2023-05-17T05:09:04.198Z,2.43
2023-05-17T05:11:31.981Z,2.10
2023-05-17T05:13:58.802Z,2.07
2023-05-17T05:16:26.081Z,2.47
2023-05-17T05:18:53.055Z,2.40
2023-05-17T05:21:20.150Z,2.33
2023-05-17T05:23:46.893Z,2.03
2023-05-17T05:26:13.630Z,2.00
2023-05-17T05:28:40.445Z,2.10
2023-05-17T05:31:07.211Z,2.10
2023-05-17T05:33:34.196Z,1.90
2023-05-17T05:36:01.022Z,2.50
2023-05-17T05:38:27.847Z,2.00
2023-05-17T05:40:54.688Z,2.00
2023-05-17T05:43:21.440Z,2.03
2023-05-17T05:45:48.216Z,1.90
2023-05-17T05:48:15.367Z,2.00
2023-05-17T05:50:44.215Z,1.70
2023-05-17T05:53:18.925Z,2.60
2023-05-17T05:55:46.767Z,2.43
2023-05-17T05:58:13.570Z,2.47
2023-05-17T06:00:40.431Z,2.13
2023-05-17T06:03:07.358Z,2.27
2023-05-17T06:05:34.271Z,2.20
2023-05-17T06:08:01.095Z,2.30
2023-05-17T06:10:28.132Z,2.10
2023-05-17T06:12:55.049Z,2.30
2023-05-17T06:15:21.808Z,1.90
2023-05-17T06:17:48.783Z,2.37
2023-05-17T06:20:16.442Z,3.13
2023-05-17T06:22:44.480Z,2.87
2023-05-17T06:25:11.806Z,2.40
2023-05-17T06:27:38.699Z,2.17
2023-05-17T06:30:07.552Z,2.73
2023-05-17T06:32:35.223Z,3.17
2023-05-17T06:35:02.455Z,2.83
2023-05-17T06:37:29.412Z,2.70
2023-05-17T06:40:10.529Z,2.40
2023-05-17T06:42:43.092Z,2.73
2023-05-17T06:45:10.870Z,2.10
2023-05-17T06:47:37.822Z,2.13
2023-05-17T06:50:05.530Z,2.60
2023-05-17T06:52:32.460Z,2.50
2023-05-17T06:54:59.224Z,2.43
2023-05-17T06:57:26.187Z,2.00
2023-05-17T06:59:53.002Z,2.23
2023-05-17T07:02:20.040Z,2.30
2023-05-17T07:04:46.897Z,2.50
2023-05-17T07:07:13.754Z,2.10
2023-05-17T07:09:41.273Z,1.93
2023-05-17T07:12:08.265Z,2.23
2023-05-17T07:14:35.425Z,1.90
2023-05-17T07:17:02.203Z,2.60
2023-05-17T07:19:29.024Z,2.60
2023-05-17T07:21:55.919Z,2.43
2023-05-17T07:24:22.740Z,2.40
2023-05-17T07:26:50.872Z,2.17
2023-05-17T07:29:19.048Z,2.40
2023-05-17T07:31:45.835Z,2.63
2023-05-17T07:34:13.660Z,2.87
2023-05-17T07:36:40.578Z,2.60
2023-05-17T07:39:08.693Z,2.03
2023-05-17T07:41:36.371Z,2.67
2023-05-17T07:44:03.257Z,2.17
2023-05-17T07:46:30.100Z,2.37
2023-05-17T07:48:58.715Z,2.80
2023-05-17T07:51:26.238Z,2.67
2023-05-17T07:53:53.095Z,2.67
2023-05-17T07:56:19.936Z,2.50
2023-05-17T07:58:46.761Z,2.40
2023-05-17T08:01:13.614Z,3.33
2023-05-17T08:03:47.547Z,3.23
2023-05-17T08:06:16.443Z,3.27
2023-05-17T08:08:44.510Z,2.80
2023-05-17T08:11:12.703Z,2.30
2023-05-17T08:13:39.508Z,2.83
2023-05-17T08:16:13.716Z,2.83
2023-05-17T08:18:43.759Z,2.90
2023-05-17T08:21:11.366Z,2.30
2023-05-17T08:23:39.313Z,2.53
2023-05-17T08:26:06.600Z,3.13
2023-05-17T08:28:33.750Z,3.13
2023-05-17T08:31:00.588Z,2.70
2023-05-17T08:33:27.512Z,2.83
2023-05-17T08:35:55.304Z,2.50
2023-05-17T08:38:22.378Z,2.73
2023-05-17T08:40:56.926Z,3.13
2023-05-17T08:43:26.830Z,3.20
2023-05-17T08:45:57.369Z,2.97
2023-05-17T08:48:24.727Z,3.70
2023-05-17T08:50:54.981Z,3.33
2023-05-17T08:53:22.672Z,3.17
2023-05-17T08:55:53.516Z,2.70
2023-05-17T08:58:27.465Z,3.20
2023-05-17T09:00:56.305Z,3.00
2023-05-17T09:03:25.325Z,3.53
2023-05-17T09:05:53.470Z,3.07
2023-05-17T09:08:23.166Z,2.60
2023-05-17T09:10:50.605Z,3.50
2023-05-17T09:13:17.535Z,2.90
2023-05-17T09:15:47.759Z,3.17
2023-05-17T09:18:17.052Z,2.90
2023-05-17T09:20:51.615Z,3.13
2023-05-17T09:23:21.320Z,2.97
2023-05-17T09:25:49.808Z,2.90
2023-05-17T09:28:22.065Z,3.13
2023-05-17T09:30:49.858Z,3.10
2023-05-17T09:33:21.360Z,2.93
2023-05-17T09:35:48.140Z,3.60
2023-05-17T09:38:14.917Z,2.93
2023-05-17T09:40:47.790Z,2.90
2023-05-17T09:43:22.936Z,2.77
2023-05-17T09:45:58.431Z,3.13
2023-05-17T09:48:28.074Z,2.70
2023-05-17T09:50:55.098Z,2.63
2023-05-17T09:53:30.308Z,3.27
2023-05-17T09:56:00.683Z,3.13
2023-05-17T09:58:29.061Z,3.00
2023-05-17T10:01:01.759Z,2.80
2023-05-17T10:03:36.749Z,2.63
2023-05-17T10:06:08.790Z,3.00
2023-05-17T10:08:38.482Z,3.10
2023-05-17T10:11:11.013Z,2.73
2023-05-17T10:13:47.328Z,2.90
2023-05-17T10:16:14.799Z,3.23
2023-05-17T10:18:41.940Z,2.80
2023-05-17T10:21:10.610Z,2.90
2023-05-17T10:23:39.072Z,2.70
2023-05-17T10:26:06.582Z,2.43
2023-05-17T10:28:34.888Z,3.30
2023-05-17T10:31:04.174Z,3.17
2023-05-17T10:33:33.250Z,2.83
2023-05-17T10:36:06.246Z,2.60
2023-05-17T10:38:41.757Z,2.90
2023-05-17T10:41:14.074Z,3.03
2023-05-17T10:43:43.564Z,2.70
2023-05-17T10:46:18.475Z,2.83
2023-05-17T10:48:48.882Z,2.60
2023-05-17T10:51:18.770Z,2.60
2023-05-17T10:54:18.365Z,2.50
2023-05-17T10:56:50.450Z,2.50
2023-05-17T10:59:26.811Z,2.63
2023-05-17T11:02:05.266Z,2.60
2023-05-17T11:04:33.636Z,3.10
2023-05-17T11:07:19.169Z,2.60
2023-05-17T11:10:03.593Z,2.73
2023-05-17T11:12:47.882Z,2.77
2023-05-17T11:15:16.818Z,2.80
2023-05-17T11:17:43.906Z,2.70
2023-05-17T11:20:32.925Z,2.93
2023-05-17T11:23:06.901Z,3.20
2023-05-17T11:25:39.468Z,2.87
2023-05-17T11:28:18.646Z,2.97
2023-05-17T11:30:51.483Z,2.70
2023-05-17T11:33:33.123Z,3.00
2023-05-17T11:36:07.279Z,2.57
2023-05-17T11:38:34.663Z,2.87
2023-05-17T11:43:49.733Z,2.70
2023-05-17T11:46:22.664Z,2.70
2023-05-17T11:48:54.008Z,2.57
2023-05-17T11:51:24.663Z,2.93
2023-05-17T11:53:55.371Z,2.97
2023-05-17T11:56:35.555Z,2.97
2023-05-17T11:59:10.353Z,3.00
2023-05-17T12:01:48.743Z,2.60
2023-05-17T12:04:25.663Z,2.80
2023-05-17T12:06:56.463Z,2.43
2023-05-17T12:09:24.186Z,2.70
2023-05-17T12:11:51.044Z,2.50
2023-05-17T12:14:18.521Z,2.70
2023-05-17T12:16:50.692Z,2.80
2023-05-17T12:19:23.612Z,2.60
2023-05-17T12:21:51.397Z,2.90
2023-05-17T12:24:18.592Z,2.73
2023-05-17T12:26:47.286Z,3.40
2023-05-17T12:29:19.434Z,2.67
2023-05-17T12:31:50.564Z,2.87
2023-05-17T12:34:18.469Z,2.50
2023-05-17T12:36:45.675Z,2.73
2023-05-17T12:39:14.449Z,3.43
2023-05-17T12:41:42.840Z,2.97
2023-05-17T12:44:15.583Z,2.97
2023-05-17T12:46:43.928Z,2.80
2023-05-17T12:49:12.158Z,2.37
2023-05-17T12:51:46.970Z,2.80
2023-05-17T12:54:23.668Z,2.20
2023-05-17T12:56:50.465Z,2.67
2023-05-17T12:59:20.737Z,2.80
2023-05-17T13:01:53.277Z,2.90
2023-05-17T13:04:21.398Z,3.00
2023-05-17T13:06:54.568Z,2.40
2023-05-17T13:09:24.064Z,2.90
2023-05-17T13:11:57.937Z,3.10
2023-05-17T13:14:47.406Z,3.27
2023-05-17T13:17:40.365Z,2.73
2023-05-17T13:20:10.559Z,2.80
2023-05-17T13:22:45.964Z,2.70
2023-05-17T13:25:14.384Z,3.00
2023-05-17T13:27:46.596Z,2.80
2023-05-17T13:30:13.852Z,2.90
2023-05-17T13:32:40.816Z,2.80
2023-05-17T13:35:08.059Z,3.00
2023-05-17T13:37:35.995Z,2.90
2023-05-17T13:40:07.160Z,3.00
2023-05-17T13:42:34.448Z,2.70
2023-05-17T13:45:03.992Z,3.10
2023-05-17T13:47:32.042Z,3.03
2023-05-17T13:50:00.892Z,2.97
2023-05-17T13:52:28.122Z,2.93
2023-05-17T13:54:54.998Z,3.07
2023-05-17T13:57:21.912Z,2.83
2023-05-17T13:59:48.750Z,3.33
2023-05-17T14:02:15.855Z,2.57
2023-05-17T14:04:42.719Z,3.07
2023-05-17T14:07:09.524Z,3.17
2023-05-17T14:09:36.899Z,2.90
2023-05-17T14:12:04.079Z,2.53
2023-05-17T14:14:31.746Z,2.77
2023-05-17T14:16:59.012Z,2.77
2023-05-17T14:19:26.008Z,2.77
2023-05-17T14:21:52.973Z,3.00
2023-05-17T14:24:19.954Z,2.60
2023-05-17T14:26:46.813Z,3.20
2023-05-17T14:29:13.644Z,2.60
2023-05-17T14:31:41.471Z,2.63
2023-05-17T14:34:08.317Z,2.30
2023-05-17T14:36:36.369Z,3.00
2023-05-17T14:39:04.282Z,2.93
2023-05-17T14:41:31.349Z,2.73
2023-05-17T14:43:58.221Z,2.80
2023-05-17T14:46:25.018Z,2.87
2023-05-17T14:48:52.318Z,3.10
2023-05-17T14:51:19.748Z,3.33
2023-05-17T14:53:46.549Z,2.50
2023-05-17T14:56:15.104Z,2.57
2023-05-17T14:58:42.223Z,2.50
2023-05-17T15:01:09.172Z,3.40
2023-05-17T15:03:36.156Z,3.10
2023-05-17T15:06:06.867Z,3.10
2023-05-17T15:08:35.133Z,3.10
2023-05-17T15:11:02.105Z,3.27
2023-05-17T15:13:28.936Z,2.93
2023-05-17T15:15:55.766Z,2.73
2023-05-17T15:18:22.543Z,2.80
2023-05-17T15:20:49.502Z,2.63
2023-05-17T15:23:16.452Z,2.80
2023-05-17T15:25:43.231Z,2.60
2023-05-17T15:28:10.045Z,3.10
2023-05-17T15:30:36.937Z,2.63
2023-05-17T15:33:04.145Z,2.60
2023-05-17T15:35:31.287Z,2.70
2023-05-17T15:37:59.620Z,2.60
2023-05-17T15:40:32.472Z,2.63
2023-05-17T15:43:00.352Z,2.80
2023-05-17T15:45:27.269Z,2.50
2023-05-17T15:47:56.491Z,2.40
2023-05-17T15:50:23.294Z,2.60
2023-05-17T15:52:50.074Z,2.43
2023-05-17T15:55:17.087Z,2.57
2023-05-17T15:57:43.912Z,2.57
2023-05-17T16:00:11.702Z,2.30
2023-05-17T16:02:38.542Z,2.37
2023-05-17T16:05:07.205Z,2.30
2023-05-17T16:07:33.969Z,2.23
2023-05-17T16:10:00.775Z,2.43
2023-05-17T16:12:27.654Z,2.27
2023-05-17T16:14:54.415Z,2.60
2023-05-17T16:17:21.317Z,2.53
2023-05-17T16:19:48.108Z,3.10
2023-05-17T16:22:14.963Z,2.70
2023-05-17T16:24:41.916Z,2.60
2023-05-17T16:27:08.707Z,2.70
2023-05-17T16:29:39.759Z,2.40
2023-05-17T16:32:08.032Z,2.77
2023-05-17T16:34:35.032Z,2.83
2023-05-17T16:37:02.411Z,2.33
2023-05-17T16:39:29.219Z,2.40
2023-05-17T16:41:56.110Z,2.30
2023-05-17T16:44:22.907Z,2.33
2023-05-17T16:46:50.479Z,2.30
2023-05-17T16:49:17.405Z,2.60
2023-05-17T16:51:45.346Z,2.60
2023-05-17T16:54:12.314Z,2.17
2023-05-17T16:56:39.268Z,2.43
2023-05-17T16:59:06.062Z,2.63
2023-05-17T17:01:33.128Z,2.93
2023-05-17T17:04:00.257Z,2.60
2023-05-17T17:06:27.221Z,2.60
2023-05-17T17:08:53.991Z,2.47
2023-05-17T17:11:21.798Z,2.47
2023-05-17T17:13:49.383Z,2.60
2023-05-17T17:16:16.164Z,2.17
2023-05-17T17:18:43.112Z,2.20
2023-05-17T17:21:10.585Z,1.93
2023-05-17T17:23:37.709Z,2.50
2023-05-17T17:26:04.664Z,2.60
2023-05-17T17:28:31.441Z,2.10
2023-05-17T17:30:58.436Z,2.53
2023-05-17T17:33:25.336Z,2.57
2023-05-17T17:35:52.733Z,2.10
2023-05-17T17:38:19.540Z,2.33
2023-05-17T17:40:46.333Z,2.20
2023-05-17T17:43:13.188Z,2.37
2023-05-17T17:45:40.035Z,2.20
2023-05-17T17:48:07.010Z,1.77
2023-05-17T17:50:34.050Z,2.00
2023-05-17T17:53:01.223Z,2.03
2023-05-17T17:55:28.082Z,1.90
2023-05-17T17:57:54.903Z,2.40
2023-05-17T18:00:22.940Z,2.30
2023-05-17T18:02:49.761Z,2.00
2023-05-17T18:05:16.604Z,2.00
2023-05-17T18:07:43.422Z,1.90
2023-05-17T18:10:10.680Z,2.03
2023-05-17T18:12:37.451Z,2.30
2023-05-17T18:15:05.491Z,1.97
2023-05-17T18:17:32.301Z,1.80
2023-05-17T18:19:59.250Z,2.20
2023-05-17T18:22:26.099Z,2.00
2023-05-17T18:24:52.918Z,2.10
2023-05-17T18:27:20.074Z,2.50
2023-05-17T18:29:46.884Z,2.43
2023-05-17T18:32:13.747Z,2.37
2023-05-17T18:34:40.660Z,2.17
2023-05-17T18:37:07.596Z,2.30
2023-05-17T18:39:34.519Z,2.30
2023-05-17T18:42:01.460Z,2.70
2023-05-17T18:44:28.309Z,2.40
2023-05-17T18:46:56.808Z,3.03
2023-05-17T18:49:23.739Z,3.73
2023-05-17T18:51:50.611Z,3.97
2023-05-17T18:54:17.377Z,3.43
2023-05-17T18:56:44.273Z,2.93
2023-05-17T18:59:11.166Z,2.70
2023-05-17T19:01:38.410Z,2.87
2023-05-17T19:04:05.846Z,2.90
2023-05-17T19:06:32.792Z,2.60
2023-05-17T19:08:59.773Z,3.13
2023-05-17T19:11:28.596Z,2.60
2023-05-17T19:13:56.082Z,2.80
2023-05-17T19:16:22.899Z,3.03
2023-05-17T19:18:50.206Z,3.20
2023-05-17T19:21:17.199Z,2.63
2023-05-17T19:23:44.092Z,2.60
2023-05-17T19:26:11.002Z,3.00
2023-05-17T19:28:37.954Z,3.10
2023-05-17T19:31:04.921Z,2.57
2023-05-17T19:33:34.562Z,3.10
2023-05-17T19:36:01.558Z,3.03
2023-05-17T19:38:28.441Z,3.00
2023-05-17T19:40:55.203Z,3.03
2023-05-17T19:43:21.977Z,2.93
2023-05-17T19:45:48.765Z,2.50
2023-05-17T19:48:15.903Z,2.73
2023-05-17T19:50:42.839Z,2.83
2023-05-17T19:53:09.825Z,2.90
2023-05-17T19:55:36.635Z,2.83
2023-05-17T19:58:03.668Z,3.20
2023-05-17T20:00:32.578Z,2.90
2023-05-17T20:02:59.681Z,3.20
2023-05-17T20:05:27.179Z,2.77
2023-05-17T20:07:55.164Z,3.00
2023-05-17T20:10:22.277Z,2.50
2023-05-17T20:12:49.086Z,3.30
2023-05-17T20:15:16.182Z,3.30
2023-05-17T20:17:43.007Z,3.00
2023-05-17T20:20:10.103Z,3.33
2023-05-17T20:22:37.679Z,3.30
2023-05-17T20:25:04.850Z,3.17
2023-05-17T20:27:31.652Z,2.53
2023-05-17T20:29:58.472Z,3.40
2023-05-17T20:32:25.487Z,2.97
2023-05-17T20:34:52.402Z,2.83
2023-05-17T20:37:19.171Z,3.10
2023-05-17T20:39:46.260Z,3.13
2023-05-17T20:42:18.059Z,3.27
2023-05-17T20:44:45.352Z,2.70
2023-05-17T20:47:12.194Z,3.13
2023-05-17T20:49:38.959Z,3.30
2023-05-17T20:52:06.387Z,3.37
2023-05-17T20:54:33.287Z,3.10
2023-05-17T20:57:00.481Z,2.83
2023-05-17T20:59:27.284Z,3.50
2023-05-17T21:01:54.112Z,3.40
2023-05-17T21:04:21.144Z,2.63
2023-05-17T21:06:47.947Z,2.60
2023-05-17T21:09:14.724Z,3.40
2023-05-17T21:11:41.500Z,3.03
2023-05-17T21:14:08.476Z,3.00
2023-05-17T21:16:35.409Z,2.83
2023-05-17T21:19:02.573Z,2.73
2023-05-17T21:21:29.465Z,3.03
2023-05-17T21:23:56.274Z,3.20
2023-05-17T21:26:23.140Z,3.30
2023-05-17T21:28:49.924Z,3.00
2023-05-17T21:31:16.804Z,3.27
2023-05-17T21:33:43.810Z,3.57
2023-05-17T21:36:10.653Z,3.27
2023-05-17T21:38:37.503Z,3.60
2023-05-17T21:41:04.334Z,3.50
2023-05-17T21:43:31.196Z,3.30
2023-05-17T21:45:57.995Z,3.23
2023-05-17T21:48:24.769Z,3.47
2023-05-17T21:50:51.576Z,3.60
2023-05-17T21:53:18.398Z,3.40
2023-05-17T21:55:56.832Z,3.00
2023-05-17T21:58:28.621Z,3.07
2023-05-17T22:00:55.463Z,3.57
2023-05-17T22:03:22.539Z,3.33
2023-05-17T22:05:49.425Z,3.43
2023-05-17T22:08:16.249Z,3.57
2023-05-17T22:10:43.446Z,3.43
2023-05-17T22:13:12.207Z,3.30
2023-05-17T22:15:39.228Z,3.27
2023-05-17T22:18:06.069Z,3.03
2023-05-17T22:20:33.048Z,3.20
2023-05-17T22:22:59.956Z,3.30
2023-05-17T22:25:26.696Z,3.20
2023-05-17T22:27:53.466Z,2.83
2023-05-17T22:30:20.452Z,3.43
2023-05-17T22:32:47.286Z,2.97
2023-05-17T22:35:14.294Z,2.87
2023-05-17T22:37:42.613Z,3.20
2023-05-17T22:40:10.690Z,3.10
2023-05-17T22:42:37.610Z,3.30
2023-05-17T22:45:04.703Z,2.67
2023-05-17T22:47:31.838Z,3.10
2023-05-17T22:50:00.676Z,2.63
2023-05-17T22:52:27.498Z,3.10
2023-05-17T22:54:54.277Z,2.73
2023-05-17T22:57:21.057Z,3.20
2023-05-17T22:59:47.841Z,3.10
2023-05-17T23:02:14.674Z,3.07
2023-05-17T23:04:41.494Z,2.80
2023-05-17T23:07:09.711Z,4.00
2023-05-17T23:09:40.240Z,2.73
2023-05-17T23:12:08.608Z,2.90
2023-05-17T23:14:36.500Z,3.23
2023-05-17T23:17:04.757Z,2.70
2023-05-17T23:19:33.140Z,3.27
2023-05-17T23:22:03.948Z,3.00
2023-05-17T23:24:30.714Z,3.40
2023-05-17T23:26:57.665Z,2.77
2023-05-17T23:29:25.972Z,2.90
2023-05-17T23:31:53.294Z,2.93
2023-05-17T23:34:20.227Z,2.77
2023-05-17T23:36:47.035Z,2.53
2023-05-17T23:39:13.787Z,2.70
2023-05-17T23:41:40.577Z,3.33
2023-05-17T23:44:07.811Z,2.50
2023-05-17T23:46:34.628Z,2.90
2023-05-17T23:49:02.302Z,2.77
2023-05-17T23:51:29.425Z,2.87
2023-05-17T23:53:56.324Z,3.23
2023-05-17T23:56:23.323Z,3.27
2023-05-17T23:58:50.426Z,3.07
